Time;durP1;ratioP1;P1;durP2;ratioP2;P2;SDS_P1;SDS_P2;PMS_P1;PMS_P2;Temp;Humidity;BMP_temperature;BMP_pressure;BME280_temperature;BME280_humidity;BME280_pressure;Samples;Min_cycle;Max_cycle;Signal;HPM_P1;HPM_P2
2023/05/14 00:01:34;;;;;;;3.28;2.40;;;16.40;94.00;;;;;;10220878;28;20058;-67
2023/05/14 00:06:25;;;;;;;5.57;3.80;;;16.30;94.20;;;;;;10201408;28;20055;-63
2023/05/14 00:11:16;;;;;;;4.40;2.88;;;16.30;94.30;;;;;;10216787;28;20047;-70
2023/05/14 00:16:08;;;;;;;3.45;2.35;;;16.30;94.40;;;;;;10209276;28;20051;-67
2023/05/14 00:20:58;;;;;;;3.63;2.67;;;16.30;94.50;;;;;;10220102;28;20023;-64
2023/05/14 00:25:49;;;;;;;3.90;2.65;;;16.10;94.90;;;;;;10216049;28;20077;-66
2023/05/14 00:30:40;;;;;;;4.32;3.25;;;16.00;95.00;;;;;;10223182;28;20591;-63
2023/05/14 00:35:31;;;;;;;4.88;3.05;;;16.00;95.00;;;;;;10219342;28;20616;-65
2023/05/14 00:40:25;;;;;;;5.07;3.40;;;16.10;95.00;;;;;;10220139;28;20031;-64
2023/05/14 00:45:16;;;;;;;3.70;3.13;;;16.10;95.20;;;;;;10217648;28;20719;-63
2023/05/14 00:50:08;;;;;;;3.78;3.00;;;16.00;95.30;;;;;;10218080;28;20392;-64
2023/05/14 00:54:59;;;;;;;4.75;3.53;;;16.00;95.40;;;;;;10209375;28;20389;-67
2023/05/14 00:59:50;;;;;;;5.78;2.90;;;15.90;95.70;;;;;;10227900;28;20393;-64
2023/05/14 01:04:41;;;;;;;3.97;2.67;;;15.80;95.90;;;;;;10218738;28;20020;-64
2023/05/14 01:10:00;;;;;;;3.72;3.00;;;15.80;96.00;;;;;;10196488;28;20089;-63
2023/05/14 01:14:56;;;;;;;4.28;2.80;;;16.00;96.10;;;;;;10213119;28;20550;-63
2023/05/14 01:19:47;;;;;;;3.38;2.65;;;15.80;96.10;;;;;;10225561;28;20816;-72
2023/05/14 01:24:38;;;;;;;4.45;2.95;;;15.80;96.30;;;;;;10224593;28;20397;-68
2023/05/14 01:29:32;;;;;;;4.43;3.10;;;15.60;96.50;;;;;;10225469;28;20099;-62
2023/05/14 01:34:24;;;;;;;7.05;3.30;;;15.30;97.10;;;;;;10226382;28;20061;-72
2023/05/14 01:39:15;;;;;;;4.20;3.10;;;15.30;97.20;;;;;;10233969;27;20023;-75
2023/05/14 01:44:07;;;;;;;4.70;3.33;;;15.30;97.30;;;;;;10206743;27;20400;-74
2023/05/14 01:48:58;;;;;;;4.05;3.08;;;15.20;97.40;;;;;;10217139;28;20035;-67
2023/05/14 01:53:49;;;;;;;4.85;3.30;;;15.30;97.50;;;;;;10223419;28;20027;-66
2023/05/14 01:58:40;;;;;;;5.03;3.53;;;15.20;97.60;;;;;;10224539;28;20526;-63
2023/05/14 02:03:31;;;;;;;7.28;3.42;;;15.30;97.80;;;;;;10222260;28;20282;-64
2023/05/14 02:08:22;;;;;;;4.68;3.63;;;15.20;98.00;;;;;;10229045;27;20398;-62
2023/05/14 02:13:13;;;;;;;4.40;3.50;;;15.00;98.40;;;;;;10224338;28;20036;-69
2023/05/14 02:18:04;;;;;;;4.85;3.83;;;15.10;98.50;;;;;;10223687;28;20073;-62
2023/05/14 02:22:55;;;;;;;4.97;3.78;;;15.20;98.60;;;;;;10232459;27;20061;-73
2023/05/14 02:27:46;;;;;;;4.30;3.22;;;15.20;98.70;;;;;;10224473;27;20027;-70
2023/05/14 02:32:36;;;;;;;6.90;3.97;;;15.30;98.70;;;;;;10225650;27;20039;-69
2023/05/14 02:37:27;;;;;;;6.20;3.20;;;15.40;98.80;;;;;;10223011;28;20069;-64
2023/05/14 02:42:18;;;;;;;6.03;3.28;;;15.30;98.80;;;;;;10222930;28;20028;-70
2023/05/14 02:47:08;;;;;;;6.40;3.63;;;15.20;99.20;;;;;;10215008;27;20020;-72
2023/05/14 02:51:59;;;;;;;5.20;3.85;;;15.20;99.20;;;;;;10224283;27;20039;-72
2023/05/14 02:56:50;;;;;;;5.60;3.30;;;15.20;99.40;;;;;;10222200;28;20561;-72
2023/05/14 03:01:41;;;;;;;4.43;2.97;;;15.10;99.50;;;;;;10220649;28;20122;-72
2023/05/14 03:06:31;;;;;;;5.50;3.67;;;15.10;99.60;;;;;;10201451;27;20452;-74
2023/05/14 03:11:22;;;;;;;5.25;3.47;;;15.20;99.70;;;;;;10218219;28;20047;-65
2023/05/14 03:16:13;;;;;;;5.15;3.80;;;15.10;99.90;;;;;;10218730;28;20084;-66
2023/05/14 03:21:03;;;;;;;5.53;3.72;;;15.00;99.90;;;;;;10210174;28;20031;-73
2023/05/14 03:25:55;;;;;;;3.78;3.28;;;15.00;99.90;;;;;;10215378;28;20019;-71
2023/05/14 03:30:46;;;;;;;4.65;3.63;;;14.80;99.90;;;;;;10223358;27;20050;-72
2023/05/14 03:35:36;;;;;;;6.80;3.72;;;14.70;99.90;;;;;;10203449;28;20058;-67
2023/05/14 03:40:27;;;;;;;5.65;3.67;;;14.80;99.90;;;;;;10200018;28;20489;-73
2023/05/14 03:45:18;;;;;;;6.32;4.43;;;14.90;99.90;;;;;;10216741;28;20148;-73
2023/05/14 03:50:08;;;;;;;4.00;3.28;;;14.90;99.90;;;;;;10189763;28;20512;-76
2023/05/14 03:54:59;;;;;;;6.68;4.22;;;14.90;99.90;;;;;;10196108;28;20454;-73
2023/05/14 03:59:50;;;;;;;4.65;3.70;;;14.80;99.90;;;;;;10201910;28;20051;-72
2023/05/14 04:04:41;;;;;;;4.82;3.38;;;14.80;99.90;;;;;;10231147;27;20079;-71
2023/05/14 04:09:31;;;;;;;3.42;2.95;;;14.80;99.90;;;;;;10220276;28;20031;-65
2023/05/14 04:14:22;;;;;;;4.90;3.55;;;14.70;99.90;;;;;;10238737;27;20020;-67
2023/05/14 04:19:13;;;;;;;4.32;2.90;;;14.70;99.90;;;;;;10220858;28;20015;-76
2023/05/14 04:24:04;;;;;;;5.43;3.65;;;14.60;99.90;;;;;;10217838;28;20101;-69
2023/05/14 04:28:54;;;;;;;4.28;3.28;;;14.70;99.90;;;;;;10226986;28;20626;-67
2023/05/14 04:33:45;;;;;;;4.80;2.88;;;14.60;99.90;;;;;;10220071;28;20600;-63
2023/05/14 04:38:36;;;;;;;4.18;3.05;;;14.80;99.90;;;;;;10200894;28;20020;-64
2023/05/14 04:43:27;;;;;;;4.43;3.25;;;14.90;99.90;;;;;;10218833;28;20401;-62
2023/05/14 04:48:17;;;;;;;4.47;3.22;;;15.00;99.90;;;;;;10214516;28;20497;-62
2023/05/14 04:53:08;;;;;;;4.43;3.25;;;14.80;99.90;;;;;;10213881;28;20112;-65
2023/05/14 04:57:58;;;;;;;6.80;3.88;;;14.90;99.90;;;;;;10231049;27;20024;-61
2023/05/14 05:02:49;;;;;;;4.32;3.35;;;14.80;99.90;;;;;;10223014;28;20142;-62
2023/05/14 05:07:40;;;;;;;5.85;3.08;;;14.70;99.90;;;;;;10207018;28;20224;-64
2023/05/14 05:12:30;;;;;;;4.93;3.53;;;14.80;99.90;;;;;;10226401;27;20512;-61
2023/05/14 05:17:21;;;;;;;5.13;3.28;;;14.70;99.90;;;;;;10226262;28;20016;-65
2023/05/14 05:22:12;;;;;;;5.10;3.47;;;14.80;99.90;;;;;;10226223;28;20028;-62
2023/05/14 05:27:04;;;;;;;5.55;3.30;;;14.80;99.90;;;;;;10202349;28;20443;-66
2023/05/14 05:31:54;;;;;;;3.47;2.90;;;14.80;99.90;;;;;;10226323;28;20051;-63
2023/05/14 05:36:45;;;;;;;3.35;3.00;;;14.80;99.90;;;;;;10226259;28;20076;-67
2023/05/14 05:41:36;;;;;;;5.47;3.60;;;14.90;99.90;;;;;;10230813;27;20100;-72
2023/05/14 05:46:26;;;;;;;10.57;3.08;;;14.90;99.90;;;;;;10216314;28;20019;-70
2023/05/14 05:51:17;;;;;;;5.20;3.20;;;14.90;99.90;;;;;;10220724;28;20040;-68
2023/05/14 05:56:08;;;;;;;3.50;3.08;;;15.00;99.90;;;;;;10225390;28;20445;-65
2023/05/14 06:00:59;;;;;;;4.05;3.25;;;14.90;99.90;;;;;;10230244;27;20089;-65
2023/05/14 06:05:51;;;;;;;4.70;3.45;;;14.90;99.90;;;;;;10234435;27;20400;-63
2023/05/14 06:10:41;;;;;;;3.60;3.28;;;14.90;99.90;;;;;;10232113;27;20135;-67
2023/05/14 06:15:32;;;;;;;3.88;3.10;;;15.10;99.90;;;;;;10221425;28;20023;-67
2023/05/14 06:20:23;;;;;;;6.15;3.22;;;15.10;99.90;;;;;;10207313;27;20186;-65
2023/05/14 06:25:13;;;;;;;6.50;3.38;;;15.00;99.90;;;;;;10206997;28;20056;-66
2023/05/14 06:30:05;;;;;;;3.97;3.28;;;14.90;99.90;;;;;;10206009;28;20502;-65
2023/05/14 06:34:56;;;;;;;4.63;3.30;;;15.00;99.90;;;;;;10210224;28;20035;-62
2023/05/14 06:39:49;;;;;;;5.53;2.88;;;15.30;99.90;;;;;;10224327;27;20020;-68
2023/05/14 06:44:40;;;;;;;4.50;3.20;;;15.20;99.90;;;;;;10224016;27;20062;-67
2023/05/14 06:49:30;;;;;;;8.15;3.55;;;15.30;99.90;;;;;;10223989;27;20042;-73
2023/05/14 06:54:21;;;;;;;4.95;3.25;;;15.30;99.90;;;;;;10222811;28;20050;-65
2023/05/14 06:59:11;;;;;;;4.90;3.03;;;15.50;99.90;;;;;;10221970;28;20119;-67
2023/05/14 07:04:02;;;;;;;6.75;3.70;;;15.50;99.90;;;;;;10205786;27;20034;-63
2023/05/14 07:08:53;;;;;;;4.30;3.00;;;15.70;99.90;;;;;;10221690;28;20023;-63
2023/05/14 07:13:43;;;;;;;9.20;3.58;;;15.50;99.90;;;;;;10202004;28;20118;-63
2023/05/14 07:18:34;;;;;;;8.40;3.25;;;15.70;99.90;;;;;;10228750;27;20026;-67
2023/05/14 07:23:25;;;;;;;6.60;3.45;;;15.80;99.90;;;;;;10203102;28;20026;-70
2023/05/14 07:28:15;;;;;;;4.35;3.05;;;16.10;99.90;;;;;;10207605;28;20028;-71
2023/05/14 07:33:06;;;;;;;7.18;3.78;;;16.40;99.90;;;;;;10233203;27;20511;-72
2023/05/14 07:37:57;;;;;;;5.03;3.90;;;16.30;99.90;;;;;;10221981;28;20050;-74
2023/05/14 07:42:48;;;;;;;4.65;3.17;;;16.30;99.90;;;;;;10222008;28;20026;-78
2023/05/14 07:47:39;;;;;;;5.28;3.55;;;16.20;99.90;;;;;;10196396;28;20111;-71
2023/05/14 07:52:30;;;;;;;5.93;3.78;;;16.20;99.90;;;;;;10220975;28;20048;-72
2023/05/14 07:57:21;;;;;;;5.75;3.85;;;16.20;99.90;;;;;;10204142;28;20032;-76
2023/05/14 08:02:11;;;;;;;6.03;3.80;;;16.30;99.90;;;;;;10211087;28;20517;-66
2023/05/14 08:07:02;;;;;;;6.47;4.13;;;16.40;99.90;;;;;;10220884;28;20600;-70
2023/05/14 08:11:53;;;;;;;6.57;4.20;;;16.60;99.90;;;;;;10220912;28;20059;-69
2023/05/14 08:16:44;;;;;;;6.30;4.68;;;16.60;99.90;;;;;;10231932;27;20462;-71
2023/05/14 08:21:34;;;;;;;5.25;3.42;;;16.80;99.90;;;;;;10220569;28;20400;-74
2023/05/14 08:26:25;;;;;;;4.93;3.75;;;16.80;99.90;;;;;;10219537;28;20042;-70
2023/05/14 08:31:16;;;;;;;4.88;3.83;;;16.90;99.90;;;;;;10210045;28;20040;-74
2023/05/14 08:36:07;;;;;;;5.28;3.10;;;16.90;99.90;;;;;;10218603;28;20373;-76
2023/05/14 08:40:58;;;;;;;7.50;4.70;;;16.90;99.90;;;;;;10208473;28;20039;-69
2023/05/14 08:45:56;;;;;;;4.38;3.47;;;17.10;99.90;;;;;;10209296;28;20105;-71
2023/05/14 08:50:47;;;;;;;5.68;3.83;;;17.40;99.90;;;;;;10218167;28;20036;-72
2023/05/14 08:55:37;;;;;;;3.75;2.47;;;17.50;99.90;;;;;;10231675;28;20023;-72
2023/05/14 09:00:28;;;;;;;3.72;2.63;;;17.60;99.90;;;;;;10218633;28;20059;-71
2023/05/14 09:05:20;;;;;;;3.95;2.75;;;17.70;99.90;;;;;;10215052;28;20019;-73
2023/05/14 09:10:11;;;;;;;4.85;2.95;;;17.70;99.90;;;;;;10217685;28;20112;-65
2023/05/14 09:15:03;;;;;;;3.03;2.58;;;17.60;99.90;;;;;;10218293;28;20159;-68
2023/05/14 09:19:54;;;;;;;4.30;2.88;;;17.80;99.90;;;;;;10218549;28;20020;-75
2023/05/14 09:24:45;;;;;;;5.13;2.97;;;17.90;99.90;;;;;;10219734;28;20024;-74
2023/05/14 09:29:36;;;;;;;5.75;2.78;;;18.00;99.60;;;;;;10209377;28;20032;-66
2023/05/14 09:34:29;;;;;;;4.78;3.17;;;18.20;99.40;;;;;;10221514;28;20102;-69
2023/05/14 09:39:21;;;;;;;4.45;2.97;;;18.20;99.00;;;;;;10239094;27;20469;-63
2023/05/14 09:44:11;;;;;;;3.80;2.28;;;18.20;98.60;;;;;;10236894;27;20020;-67
2023/05/14 09:49:02;;;;;;;7.82;4.43;;;18.20;98.30;;;;;;10215601;28;20031;-68
2023/05/14 09:53:53;;;;;;;5.55;3.17;;;18.30;98.20;;;;;;10229405;27;20028;-66
2023/05/14 09:58:43;;;;;;;3.70;2.40;;;18.50;97.80;;;;;;10225000;28;20496;-70
2023/05/14 10:03:34;;;;;;;3.08;2.08;;;18.50;97.80;;;;;;10222573;28;20535;-72
2023/05/14 10:08:34;;;;;;;2.75;1.92;;;18.70;97.40;;;;;;10231815;27;20055;-65
2023/05/14 10:13:31;;;;;;;1.77;1.48;;;18.70;96.30;;;;;;10223842;28;20485;-63
2023/05/14 10:18:23;;;;;;;1.98;1.52;;;18.80;96.50;;;;;;10223526;27;20088;-64
2023/05/14 10:23:14;;;;;;;2.33;1.58;;;19.00;96.20;;;;;;10234109;27;20112;-63
2023/05/14 10:28:05;;;;;;;3.30;2.17;;;19.30;96.00;;;;;;10209256;28;20183;-65
2023/05/14 10:33:07;;;;;;;4.85;3.08;;;19.40;95.60;;;;;;10225318;27;20562;-65
2023/05/14 10:37:58;;;;;;;3.50;2.13;;;19.20;95.50;;;;;;10223350;28;20397;-66
2023/05/14 10:42:49;;;;;;;2.97;2.05;;;19.40;95.30;;;;;;10223487;28;20055;-65
2023/05/14 10:47:44;;;;;;;2.40;1.95;;;19.60;95.20;;;;;;10219457;27;20509;-64
2023/05/14 10:52:35;;;;;;;2.85;2.15;;;20.20;95.10;;;;;;10204054;28;20045;-67
2023/05/14 10:57:30;;;;;;;4.70;2.97;;;20.00;94.80;;;;;;10222395;28;20019;-65
2023/05/14 11:02:21;;;;;;;;;;;20.10;94.80;;;;;;10231093;27;20047;-63
2023/05/14 11:07:12;;;;;;;1.73;1.58;;;20.40;94.20;;;;;;10204076;28;20277;-72
2023/05/14 11:12:03;;;;;;;2.67;2.22;;;20.40;94.60;;;;;;10221145;28;20034;-70
2023/05/14 11:16:56;;;;;;;3.40;2.47;;;20.10;94.60;;;;;;10223383;27;20024;-63
2023/05/14 11:21:46;;;;;;;3.47;2.15;;;19.80;94.70;;;;;;10221033;28;20510;-64
2023/05/14 11:26:37;;;;;;;3.08;2.60;;;19.90;94.50;;;;;;10215519;28;20111;-62
2023/05/14 11:31:28;;;;;;;3.50;2.42;;;20.10;94.40;;;;;;10209231;27;20039;-64
2023/05/14 11:36:19;;;;;;;3.28;2.00;;;20.20;94.30;;;;;;10202877;28;20023;-64
2023/05/14 11:41:09;;;;;;;3.90;2.67;;;19.90;94.10;;;;;;10220503;28;20295;-65
2023/05/14 11:46:00;;;;;;;2.80;1.98;;;20.00;94.00;;;;;;10222888;27;20028;-63
2023/05/14 11:50:51;;;;;;;2.90;1.88;;;20.40;93.80;;;;;;10220280;28;20035;-69
2023/05/14 11:55:42;;;;;;;2.63;1.77;;;20.50;93.50;;;;;;10220965;28;20430;-66
2023/05/14 12:00:33;;;;;;;2.70;2.08;;;20.50;93.50;;;;;;10205174;28;20052;-71
2023/05/14 12:05:24;;;;;;;4.10;2.28;;;20.70;93.20;;;;;;10215347;28;20027;-74
2023/05/14 12:10:14;;;;;;;2.35;1.83;;;20.90;93.10;;;;;;10189465;28;20050;-73
2023/05/14 12:15:12;;;;;;;2.22;1.58;;;21.00;92.90;;;;;;10227300;27;20046;-65
2023/05/14 12:20:03;;;;;;;3.17;2.30;;;21.30;92.60;;;;;;10217897;28;20031;-65
2023/05/14 12:24:56;;;;;;;2.00;1.80;;;21.80;92.90;;;;;;10211884;28;20048;-63
2023/05/14 12:29:46;;;;;;;2.10;1.85;;;21.80;92.30;;;;;;10221713;28;20592;-64
2023/05/14 12:34:38;;;;;;;3.30;2.20;;;22.20;92.20;;;;;;10219166;28;20099;-64
2023/05/14 12:39:31;;;;;;;2.53;1.63;;;23.00;92.40;;;;;;10203640;28;20019;-64
2023/05/14 12:44:22;;;;;;;4.68;2.60;;;22.70;91.90;;;;;;10219151;28;20032;-65
2023/05/14 12:49:13;;;;;;;2.38;1.83;;;23.00;91.90;;;;;;10208283;28;20517;-66
2023/05/14 12:54:03;;;;;;;2.95;1.98;;;23.80;91.80;;;;;;10219193;28;20035;-67
2023/05/14 12:58:55;;;;;;;2.03;1.70;;;24.10;91.10;;;;;;10218629;28;20134;-67
2023/05/14 13:03:45;;;;;;;2.08;1.65;;;23.20;90.80;;;;;;10213835;28;20024;-68
2023/05/14 13:08:36;;;;;;;1.38;1.27;;;22.40;90.30;;;;;;10222534;28;20477;-62
2023/05/14 13:13:27;;;;;;;1.80;1.42;;;22.00;90.10;;;;;;10225484;28;20035;-66
2023/05/14 13:18:18;;;;;;;4.05;1.80;;;23.70;87.80;;;;;;10226171;28;20027;-63
2023/05/14 13:23:08;;;;;;;1.83;1.50;;;22.90;88.10;;;;;;10225731;27;20023;-62
2023/05/14 13:27:59;;;;;;;2.85;1.58;;;23.10;87.70;;;;;;10220207;28;20551;-66
2023/05/14 13:32:50;;;;;;;2.97;1.98;;;23.00;86.90;;;;;;10207043;28;20131;-74
2023/05/14 13:37:42;;;;;;;1.55;1.42;;;22.20;87.30;;;;;;10225822;27;20198;-63
2023/05/14 13:42:33;;;;;;;3.50;1.90;;;21.60;88.20;;;;;;10226016;27;20020;-69
2023/05/14 13:47:25;;;;;;;3.67;1.48;;;21.20;87.80;;;;;;10215733;28;20050;-68
2023/05/14 13:52:15;;;;;;;2.33;1.73;;;21.10;88.00;;;;;;10206458;28;20071;-64
2023/05/14 13:57:06;;;;;;;1.85;1.70;;;21.80;87.30;;;;;;10180478;28;20034;-65
2023/05/14 14:01:57;;;;;;;2.90;1.63;;;22.50;87.30;;;;;;10223446;28;20400;-64
2023/05/14 14:06:48;;;;;;;3.20;1.85;;;23.70;85.90;;;;;;10234245;27;20020;-76
2023/05/14 14:11:39;;;;;;;1.88;1.67;;;22.60;86.50;;;;;;10223649;28;20450;-73
2023/05/14 14:16:30;;;;;;;2.42;1.80;;;22.60;86.60;;;;;;10202231;28;20019;-69
2023/05/14 14:21:21;;;;;;;5.28;2.30;;;23.40;86.00;;;;;;10210613;28;20115;-75
2023/05/14 14:26:12;;;;;;;2.03;1.58;;;26.20;83.50;;;;;;10216766;28;20115;-67
2023/05/14 14:31:02;;;;;;;1.50;1.40;;;26.50;82.30;;;;;;10214746;28;20040;-63
2023/05/14 14:35:53;;;;;;;2.10;1.67;;;26.30;81.80;;;;;;10215668;28;20015;-69
2023/05/14 14:40:45;;;;;;;1.90;1.67;;;27.40;80.30;;;;;;10219926;28;20027;-65
2023/05/14 14:45:35;;;;;;;1.70;1.60;;;28.70;78.80;;;;;;10213629;28;20069;-63
2023/05/14 14:50:26;;;;;;;2.53;1.67;;;27.90;78.80;;;;;;10222320;28;20401;-63
2023/05/14 14:55:17;;;;;;;2.22;1.35;;;24.80;80.20;;;;;;10221929;28;20028;-65
2023/05/14 15:00:09;;;;;;;2.28;1.70;;;23.50;80.70;;;;;;10226369;27;20281;-64
2023/05/14 15:04:59;;;;;;;3.58;2.10;;;26.00;77.50;;;;;;10219885;27;20434;-65
2023/05/14 15:09:50;;;;;;;1.73;1.30;;;26.80;77.20;;;;;;10202831;28;20036;-64
2023/05/14 15:14:41;;;;;;;1.80;1.63;;;27.40;76.10;;;;;;10230288;27;20019;-64
2023/05/14 15:19:31;;;;;;;1.92;1.73;;;27.90;75.60;;;;;;10222253;27;20024;-63
2023/05/14 15:24:23;;;;;;;2.28;1.80;;;27.70;74.10;;;;;;10214312;28;20016;-66
2023/05/14 15:29:14;;;;;;;3.00;1.70;;;27.50;73.50;;;;;;10203677;27;20015;-66
2023/05/14 15:34:05;;;;;;;1.88;1.67;;;25.70;74.60;;;;;;10219890;28;20031;-65
2023/05/14 15:38:55;;;;;;;1.77;1.60;;;25.80;74.30;;;;;;10220731;28;20054;-66
2023/05/14 15:43:46;;;;;;;2.53;1.85;;;28.60;71.90;;;;;;10225775;27;20020;-62
2023/05/14 15:48:36;;;;;;;3.15;1.58;;;30.00;71.00;;;;;;10193083;28;20032;-64
2023/05/14 15:53:27;;;;;;;6.18;3.42;;;28.90;70.30;;;;;;10219671;28;20042;-63
2023/05/14 15:58:18;;;;;;;1.92;1.67;;;30.10;68.20;;;;;;10210866;27;20455;-64
2023/05/14 16:03:09;;;;;;;1.67;1.48;;;29.70;67.30;;;;;;10219538;28;20034;-62
2023/05/14 16:08:00;;;;;;;2.45;1.75;;;31.60;64.70;;;;;;10220369;28;20060;-66
2023/05/14 16:12:51;;;;;;;2.92;1.65;;;28.00;66.80;;;;;;10225614;28;20168;-73
2023/05/14 16:17:42;;;;;;;1.63;1.52;;;28.40;66.40;;;;;;10220335;28;20511;-70
2023/05/14 16:22:34;;;;;;;1.90;1.52;;;30.90;62.90;;;;;;10218724;28;20378;-68
2023/05/14 16:27:26;;;;;;;1.97;1.77;;;27.10;66.10;;;;;;10198454;28;20515;-71
2023/05/14 16:32:17;;;;;;;1.77;1.38;;;29.30;64.70;;;;;;10221713;28;20435;-66
2023/05/14 16:37:10;;;;;;;1.25;1.15;;;31.80;61.80;;;;;;10200725;28;20062;-70
2023/05/14 16:42:00;;;;;;;3.72;1.75;;;32.10;61.00;;;;;;10229413;28;20024;-64
2023/05/14 16:46:51;;;;;;;2.05;1.27;;;29.10;62.50;;;;;;10216575;27;20028;-63
2023/05/14 16:51:42;;;;;;;2.15;1.67;;;25.00;66.40;;;;;;10226870;28;20031;-62
2023/05/14 16:56:33;;;;;;;2.70;1.52;;;23.60;67.80;;;;;;10226637;28;20385;-64
2023/05/14 17:01:24;;;;;;;2.00;1.60;;;23.20;67.70;;;;;;10226387;28;20048;-63
2023/05/14 17:06:15;;;;;;;1.67;1.30;;;22.80;67.90;;;;;;10225641;27;20027;-62
2023/05/14 17:11:06;;;;;;;3.00;1.45;;;22.50;68.20;;;;;;10231687;27;20401;-65
2023/05/14 17:15:56;;;;;;;3.63;1.58;;;22.40;68.20;;;;;;10226372;28;20317;-64
2023/05/14 17:20:47;;;;;;;2.33;1.90;;;23.20;67.70;;;;;;10231489;27;20023;-62
2023/05/14 17:25:38;;;;;;;2.03;1.33;;;25.50;65.60;;;;;;10225577;27;20099;-63
2023/05/14 17:30:28;;;;;;;1.40;1.20;;;23.60;67.40;;;;;;10207359;28;20062;-65
2023/05/14 17:35:19;;;;;;;1.73;1.52;;;23.60;67.90;;;;;;10227092;27;20023;-66
2023/05/14 17:40:10;;;;;;;1.40;1.27;;;24.30;67.20;;;;;;10225520;28;20096;-69
2023/05/14 17:45:01;;;;;;;1.77;1.42;;;23.80;67.60;;;;;;10202659;28;20131;-66
2023/05/14 17:49:51;;;;;;;2.40;1.58;;;23.30;68.30;;;;;;10223955;27;20474;-62
2023/05/14 17:54:42;;;;;;;2.25;1.52;;;22.90;68.80;;;;;;10223938;28;20020;-67
2023/05/14 17:59:33;;;;;;;2.92;1.60;;;22.30;69.20;;;;;;10205899;28;20039;-65
2023/05/14 18:04:23;;;;;;;2.13;1.65;;;22.00;69.70;;;;;;10230573;27;20436;-63
2023/05/14 18:09:14;;;;;;;1.85;1.33;;;21.80;69.90;;;;;;10224253;28;20028;-61
2023/05/14 18:14:05;;;;;;;3.10;1.38;;;21.70;70.10;;;;;;10222712;27;20042;-63
2023/05/14 18:18:55;;;;;;;2.40;1.95;;;21.60;70.30;;;;;;10212346;27;20024;-62
2023/05/14 18:23:46;;;;;;;5.15;2.15;;;21.50;70.50;;;;;;10215063;28;20400;-71
2023/05/14 18:28:37;;;;;;;3.92;2.70;;;21.40;70.50;;;;;;10216302;28;20261;-69
2023/05/14 18:33:28;;;;;;;3.90;3.05;;;21.40;70.80;;;;;;10226545;27;20397;-71
2023/05/14 18:38:19;;;;;;;2.55;2.00;;;21.40;70.80;;;;;;10223821;28;20107;-67
2023/05/14 18:43:13;;;;;;;4.88;2.97;;;21.30;71.20;;;;;;10223571;28;20472;-67
2023/05/14 18:48:05;;;;;;;7.38;3.72;;;21.10;71.70;;;;;;10203291;28;20024;-70
2023/05/14 18:52:55;;;;;;;4.88;3.55;;;21.00;72.10;;;;;;10224603;27;20489;-67
2023/05/14 18:57:46;;;;;;;4.03;2.92;;;20.90;72.50;;;;;;10222224;28;20028;-63
2023/05/14 19:02:37;;;;;;;4.65;2.97;;;20.70;73.00;;;;;;10221146;27;20466;-71
2023/05/14 19:07:29;;;;;;;5.45;2.97;;;20.70;73.40;;;;;;10233368;27;20023;-69
2023/05/14 19:12:20;;;;;;;3.38;2.40;;;20.60;73.90;;;;;;10221555;28;20047;-71
2023/05/14 19:17:11;;;;;;;5.70;2.50;;;20.60;74.20;;;;;;10226732;27;20430;-66
2023/05/14 19:22:02;;;;;;;3.42;2.60;;;20.40;75.00;;;;;;10220049;28;20028;-63
2023/05/14 19:26:53;;;;;;;3.50;2.85;;;20.30;75.40;;;;;;10217764;28;20076;-69
2023/05/14 19:31:43;;;;;;;3.53;2.45;;;20.10;76.10;;;;;;10213236;27;20032;-65
2023/05/14 19:36:34;;;;;;;4.30;2.72;;;20.10;76.60;;;;;;10220191;28;20516;-66
2023/05/14 19:41:25;;;;;;;3.97;2.58;;;20.00;77.00;;;;;;10203764;28;20028;-65
2023/05/14 19:46:15;;;;;;;4.68;3.03;;;19.90;77.40;;;;;;10204373;27;20022;-65
2023/05/14 19:51:06;;;;;;;5.03;2.65;;;20.00;77.50;;;;;;10191750;28;20054;-66
2023/05/14 19:55:58;;;;;;;2.78;2.33;;;19.90;77.70;;;;;;10214641;28;20035;-66
2023/05/14 20:00:53;;;;;;;4.00;2.60;;;19.90;77.90;;;;;;10225371;27;20044;-69
2023/05/14 20:05:44;;;;;;;3.35;2.55;;;19.90;78.30;;;;;;10209020;28;20485;-74
2023/05/14 20:10:34;;;;;;;3.75;2.28;;;19.80;78.70;;;;;;10220431;28;20097;-70
2023/05/14 20:15:27;;;;;;;3.63;2.58;;;19.70;79.00;;;;;;10221424;28;20612;-67
2023/05/14 20:20:18;;;;;;;3.78;2.42;;;19.60;79.40;;;;;;10203817;28;20027;-72
2023/05/14 20:25:09;;;;;;;3.28;2.97;;;19.60;79.70;;;;;;10217232;28;20378;-71
2023/05/14 20:29:59;;;;;;;4.28;2.47;;;19.50;80.10;;;;;;10221308;28;20031;-68
2023/05/14 20:34:50;;;;;;;2.60;2.35;;;19.50;80.30;;;;;;10220644;28;20043;-68
2023/05/14 20:39:41;;;;;;;3.10;2.45;;;19.60;80.50;;;;;;10222215;28;20054;-68
2023/05/14 20:44:32;;;;;;;7.22;2.88;;;19.60;80.60;;;;;;10219063;28;20089;-66
2023/05/14 20:49:23;;;;;;;7.05;3.80;;;19.50;80.80;;;;;;10210818;28;20093;-69
2023/05/14 20:54:13;;;;;;;4.78;3.00;;;19.40;81.10;;;;;;10226970;28;20032;-73
2023/05/14 20:59:04;;;;;;;5.00;3.20;;;19.40;81.00;;;;;;10207291;28;20043;-66
2023/05/14 21:03:55;;;;;;;6.63;3.75;;;19.40;81.50;;;;;;10198407;28;20036;-71
2023/05/14 21:08:46;;;;;;;5.80;3.63;;;19.30;81.60;;;;;;10221578;28;20497;-64
2023/05/14 21:13:37;;;;;;;7.88;5.25;;;19.30;81.80;;;;;;10219652;28;20516;-66
2023/05/14 21:18:31;;;;;;;10.23;6.43;;;19.20;82.10;;;;;;10215670;28;20022;-64
2023/05/14 21:23:22;;;;;;;5.03;3.20;;;19.00;82.50;;;;;;10223029;28;20046;-67
2023/05/14 21:28:13;;;;;;;6.85;3.28;;;18.80;82.90;;;;;;10215160;28;20054;-64
2023/05/14 21:33:03;;;;;;;5.47;3.55;;;18.80;83.10;;;;;;10226070;27;20059;-63
2023/05/14 21:37:54;;;;;;;5.75;3.70;;;18.80;83.20;;;;;;10233966;27;20024;-62
2023/05/14 21:42:49;;;;;;;27.75;5.47;;;18.80;83.60;;;;;;10225770;28;20396;-63
2023/05/14 21:47:40;;;;;;;5.00;3.83;;;18.50;84.50;;;;;;10198389;27;20277;-62
2023/05/14 21:52:30;;;;;;;4.65;4.05;;;18.40;84.70;;;;;;10222653;28;20358;-62
2023/05/14 21:57:21;;;;;;;5.35;3.47;;;18.40;84.90;;;;;;10224650;28;20032;-62
2023/05/14 22:02:12;;;;;;;10.50;5.07;;;18.50;85.00;;;;;;10207209;27;20039;-63
2023/05/14 22:07:03;;;;;;;4.57;3.03;;;18.30;85.10;;;;;;10224503;28;20084;-63
2023/05/14 22:11:54;;;;;;;6.95;3.90;;;18.10;85.80;;;;;;10206003;28;20048;-66
2023/05/14 22:16:44;;;;;;;7.35;5.43;;;18.20;86.10;;;;;;10234154;27;20626;-61
2023/05/14 22:21:35;;;;;;;6.80;4.70;;;18.20;86.10;;;;;;10224059;28;20027;-62
2023/05/14 22:26:26;;;;;;;4.93;3.50;;;18.10;86.60;;;;;;10200024;28;20485;-69
2023/05/14 22:31:16;;;;;;;4.35;3.25;;;17.90;87.10;;;;;;10226572;27;20058;-65
2023/05/14 22:36:08;;;;;;;8.48;3.25;;;17.90;87.40;;;;;;10224942;28;20481;-67
2023/05/14 22:40:59;;;;;;;4.05;2.60;;;17.90;87.70;;;;;;10224602;28;20027;-63
2023/05/14 22:45:53;;;;;;;3.08;2.30;;;17.80;88.10;;;;;;10216680;27;20024;-63
2023/05/14 22:50:44;;;;;;;4.77;2.73;;;17.50;89.10;;;;;;10223945;27;20114;-64
2023/05/14 22:55:35;;;;;;;6.07;3.22;;;17.40;89.20;;;;;;10220912;28;20119;-66
2023/05/14 23:00:25;;;;;;;3.83;2.70;;;17.40;89.50;;;;;;10231435;27;20060;-62
2023/05/14 23:05:16;;;;;;;2.45;1.88;;;17.10;90.10;;;;;;10224294;27;20031;-66
2023/05/14 23:10:07;;;;;;;3.45;2.50;;;17.10;90.40;;;;;;10222231;28;20040;-62
2023/05/14 23:14:58;;;;;;;3.55;2.20;;;17.00;90.50;;;;;;10223273;27;20016;-62
2023/05/14 23:19:48;;;;;;;3.67;2.35;;;17.00;90.60;;;;;;10222197;27;20026;-63
2023/05/14 23:24:39;;;;;;;2.90;2.10;;;16.80;91.10;;;;;;10217393;27;20031;-65
2023/05/14 23:29:30;;;;;;;2.33;1.80;;;16.80;91.20;;;;;;10222068;27;20027;-63
2023/05/14 23:34:20;;;;;;;3.78;2.10;;;16.70;91.30;;;;;;10202649;28;20065;-64
2023/05/14 23:39:11;;;;;;;2.25;1.88;;;16.90;91.40;;;;;;10220594;28;20011;-65
2023/05/14 23:44:02;;;;;;;2.78;2.17;;;16.80;91.40;;;;;;10231400;27;20023;-63
2023/05/14 23:48:55;;;;;;;3.05;2.15;;;16.80;91.60;;;;;;10210477;28;20015;-62
2023/05/14 23:53:46;;;;;;;3.15;2.00;;;16.80;91.80;;;;;;10219004;28;20493;-68
2023/05/14 23:58:37;;;;;;;3.17;2.25;;;16.60;92.10;;;;;;10220972;27;20063;-62
